Terminal Aerodrome Forecast
Issued by NWS Kansas City/Pleasant Hill, MO

Current Version | Previous Version | Text Only | Print | Product List | Glossary On
Versions: 1 2 3 4 5 6 7 8 9 10 11 12 13 14 15 16 17 18 19 20 21 22 23 24 25 26 27 28 29
000
FTUS43 KEAX 290228 AAC
TAFMCI
TAF AMD
KMCI 290228Z 2902/2924 12008KT 3SM -TSRA BKN030CB
      TEMPO 2902/2903 1SM +TSRA SCT017CB
     FM290400 13005KT P6SM SCT250
     FM291700 15006KT P6SM SCT040=

USA.gov is the U.S. government's official web portal to all federal, state and local government web resources and services.